トルマチェヴォ空港(ノヴォシビルスク)の過去48時間の天気

トルマチェヴォ空港(ノヴォシビルスク) (TOLMACHEVO)

現在時刻: 9/16 09:08 +06 (9/16 03:08 UTC) 以下の時間は現地時間です。

過去48時間のMETAR気象情報
時間 風向 風速(m/s) 視程 気温(℃) 湿度(%) 気圧(hPa) 天気現象
16 08:30 2 10km以上 13 88 1018
16 08:00 2 9000m 11 100 1018
16 07:30 南南東 2 6000m 11 94 1018
16 07:00 南東 2 5000m 9 100 1018 もや
16 06:30 2 3000m 10 94 1017 もや
16 06:00 2 3200m 10 100 1017 もや
16 05:30 南南東 2 5000m 11 94 1017 もや
16 05:00 南南東 2 6000m 11 94 1017
16 04:30 南東 2 7000m 10 100 1017
16 04:00 南南東 2 6000m 10 100 1017 もや
16 03:30 2 2700m 10 94 1017
16 03:00 南南東 2 600m 9 100 1017
16 02:30 南東 1 200m 8 100 1016
16 02:00 南南東 2 400m 11 94 1016
16 01:30 南南東 3 150m 9 100 1016
16 01:00 南東 1 200m 9 100 1016
16 00:30 南東 1 200m 9 93 1016
16 00:00 不定 1 200m 10 94 1016
15 23:30 南東 2 650m 10 100 1016
15 23:00 3 1200m 12 94 1016
15 22:30 2 750m 10 100 1016
15 22:00 南東 2 250m 11 100 1016
15 21:30 東南東 2 200m 11 100 1016
15 21:00 東南東 2 100m 11 100 1016
15 20:30 1 150m 11 100 1016
15 20:00 1 150m 12 100 1015
15 19:30 南南東 1 700m 13 100 1015
15 19:00 静穏 0 2100m 13 94 1015
15 18:30 不定 1 7000m 14 94 1014
15 18:00 2 9000m 16 88 1014
15 17:30 2 10km以上 17 88 1014
15 17:00 南南東 2 10km以上 17 83 1014
15 16:30 2 10km以上 16 88 1014
15 16:00 南南西 3 10km以上 17 83 1014
15 15:30 2 10km以上 15 94 1013 弱いしゅう雨
15 15:00 南西 2 7000m 14 94 1013 弱い雷雨
15 14:30 東南東 3 10km以上 14 94 1013 周辺で雷 弱いしゅう雨
15 14:00 北北東 4 7000m 14 88 1013 弱い雷雨
15 13:30 西 5 9000m 17 83 1013 弱い雷雨
15 13:00 南西 7 10km以上 21 56 1013
15 12:30 西南西 5 10km以上 19 64 1013
15 12:00 南西 6 10km以上 18 68 1014
15 11:30 南南西 4 10km以上 17 72 1014
15 11:00 南西 5 10km以上 15 82 1014
15 10:30 南南西 5 10km以上 13 94 1015
15 10:00 南南西 3 10km以上 11 100 1015
15 09:30 南西 2 2400m 10 100 1015
15 09:00 西南西 2 450m 9 100 1015
15 08:30 西 2 300m 9 100 1015
15 08:00 西南西 3 350m 9 100 1015
15 07:30 西 2 550m 9 93 1014
15 07:00 西 2 4500m 8 100 1014
15 06:30 西 2 10km以上 8 93 1014
15 06:00 西南西 4 10km以上 8 93 1014
15 05:30 西南西 3 10km以上 8 93 1014
15 05:00 西南西 3 10km以上 8 93 1014
15 04:30 南西 2 10km以上 9 93 1014
15 04:00 南南西 2 10km以上 9 93 1014
15 03:30 南西 3 10km以上 10 94 1014
15 03:00 南西 2 10km以上 10 94 1014
15 02:30 南南西 3 10km以上 11 87 1013
15 02:00 3 10km以上 11 94 1014
15 01:30 3 10km以上 11 94 1014 弱いしゅう雨
UNNT 160230Z 17002MPS 140V210 CAVOK 13/11 Q1018 R25/290155 R16/290160 NOSIG RMK QFE753/1005
UNNT 160200Z 17002MPS 9000 NSC 11/11 Q1018 R25/290155 R16/290160 NOSIG RMK QFE753/1005
UNNT 160130Z 16002MPS 6000 NSC 11/10 Q1018 R25/290155 R16/290160 NOSIG RMK QFE753/1005
UNNT 160100Z 14002MPS 5000 BR NSC 09/09 Q1018 R25/290155 R16/290160 NOSIG RMK QFE753/1004
UNNT 160030Z 17002MPS 3000 BR NSC 10/09 Q1017 R25/290155 R16/290160 NOSIG RMK QFE753/1004
UNNT 160000Z 17002MPS 3200 1100S BR NSC 10/10 Q1017 R25/290155 R16/290160 NOSIG RMK QFE753/1004
UNNT 152330Z 16002MPS 140V210 5000 BR NSC 11/10 Q1017 R25/290155 R16/290160 NOSIG RMK QFE753/1004
UNNT 152300Z 16002MPS 6000 NSC 11/10 Q1017 R25/290155 R16/290160 NOSIG RMK QFE753/1004
UNNT 152230Z 13002MPS 090V160 7000 NSC 10/10 Q1017 R25/290155 R16/290160 NOSIG RMK QFE753/1004
UNNT 152200Z 16002MPS 6000 1500N BR NSC 10/10 Q1017 R25/290155 R16/290160 NOSIG RMK QFE753/1004
UNNT 152130Z 09002MPS 2700 0900N FG NSC 10/09 Q1017 R25/290155 R16/290160 NOSIG RMK QFE752/1003
UNNT 152100Z 15002MPS 0600 0300E FG NSC 09/09 Q1017 R25/290155 R16/290160 NOSIG RMK QFE752/1003
UNNT 152030Z 14001MPS 0200 0150SE R25/0650N FG NSC 08/08 Q1016 R25/290155 R16/290160 NOSIG RMK QFE752/1003
UNNT 152000Z 16002MPS 0400 0200S FG NSC 11/10 Q1016 R25/290155 R16/290160 NOSIG RMK QFE752/1003
UNNT 151930Z 15003MPS 0150 R25/0550N FG SCT001 09/09 Q1016 R25/290155 R16/290160 NOSIG RMK QBB040 QFE752/1003
UNNT 151900Z 14001MPS 0200 0100N R25/0400D FG VV001 09/09 Q1016 R25/290155 R16/290160 NOSIG RMK QBB040 QFE752/1003
UNNT 151830Z 14001MPS 0200 R25/0650D FG FEW002 09/08 Q1016 R25/290155 R16/290160 NOSIG RMK QFE752/1003
UNNT 151800Z VRB01MPS 0200 0150S R25/P2000U FG NSC 10/09 Q1016 R25/290155 R16/290160 NOSIG RMK QFE752/1003
UNNT 151730Z 14002MPS 110V240 0650 0200N FG NSC 10/10 Q1016 R25/290155 R16/290160 NOSIG RMK QFE752/1003
UNNT 151700Z 17003MPS 1200 0250E FG NSC 12/11 Q1016 R25/290155 R16/290160 NOSIG RMK QFE752/1003
UNNT 151630Z 17002MPS 0750 0250S R16/1700D FG NSC 10/10 Q1016 R16/290160 R07/290155 NOSIG RMK QFE752/1003
UNNT 151600Z 13002MPS 0250 0200S R16/0800U FG SCT002 11/11 Q1016 R16/290160 R07/290155 NOSIG RMK QFE752/1003
UNNT 151530Z 12002MPS 0200 0050SE R16/0300N FG SCT002 11/11 Q1016 R16/290160 R07/290155 NOSIG RMK QFE752/1003
UNNT 151500Z 11002MPS 0100 0050SE R16/0350N FG FEW001 11/11 Q1016 R16/290160 R07/290155 NOSIG RMK QBB040 QFE752/1003
UNNT 151430Z 10001MPS 0150 0050SE R16/0450N FG FEW001 11/11 Q1016 R16/290160 R07/290155 NOSIG RMK QBB050 QFE752/1002
UNNT 151400Z 10001MPS 0150 0050S R16/0350D FG FEW007 12/12 Q1015 R16/290160 R07/290155 NOSIG RMK QFE752/1002
UNNT 151330Z 15001MPS 0700 0550E R16/1700D FG FEW007 13/13 Q1015 R16/290160 R07/290155 NOSIG RMK QFE751/1002
UNNT 151300Z 00000MPS 2100 0050SE R07/0700D FG SCT053CB 13/12 Q1015 R07/290155 R34/290160 NOSIG RMK QFE751/1002
UNNT 151230Z VRB01MPS 7000 SCT050CB 14/13 Q1014 R07/290155 R34/290160 NOSIG RMK QFE751/1001
UNNT 151200Z 09002MPS 9000 SCT036CB 16/14 Q1014 R25/290160 R34/290160 NOSIG RMK QFE751/1001
UNNT 151130Z 17002MPS 9999 BKN036CB 17/15 Q1014 R07/290160 R34/290160 NOSIG RMK QFE751/1001
UNNT 151100Z 15002MPS 9999 BKN036CB 17/14 Q1014 R07/290160 R34/290160 NOSIG RMK QFE751/1001
UNNT 151030Z 18002MPS 9999 BKN036CB 16/14 Q1014 R07/290160 R34/290160 NOSIG RMK QFE750/1001
UNNT 151000Z 20003MPS 9999 BKN036CB 17/14 Q1014 R07/290160 R34/290160 NOSIG RMK QFE750/1000
UNNT 150930Z 09002MPS 9999 -SHRA BKN036CB 15/14 Q1013 R07/290160 R34/290160 NOSIG RMK QFE750/1000
UNNT 150900Z 23002MPS 180V300 7000 -TSRA BKN036CB 14/13 Q1013 R07/290160 R34/290160 NOSIG RMK QFE750/1000
UNNT 150830Z 11003MPS 9999 VCTS -SHRA BKN040CB 14/13 Q1013 R07/290255 R34/290255 NOSIG RMK QFE750/1000
UNNT 150800Z 03004MPS 7000 -TSRA BKN019CB 14/12 Q1013 WS R25 R25/290255 R34/290255 NOSIG RMK QFE750/1000
UNNT 150730Z 27005MPS 220V010 9000 -TSRA BKN036CB 17/14 Q1013 R25/290255 R34/290255 NOSIG RMK QFE750/1000
UNNT 150700Z 22007MPS 9999 BKN045CB 21/12 Q1013 R25/090070 R34/090070 NOSIG RMK QFE750/1000
UNNT 150630Z 24005MPS 9999 SCT045CB 19/12 Q1013 R25/250165 R34/250165 NOSIG RMK QFE750/1000
UNNT 150600Z 23006MPS 9999 SCT043CB 18/12 Q1014 R25/250165 R34/250165 NOSIG RMK QFE750/1001
UNNT 150530Z 21004MPS 9999 SCT033 17/12 Q1014 R25/250165 R34/250165 NOSIG RMK QFE750/1001
UNNT 150500Z 23005MPS 9999 SCT020 15/12 Q1014 R25/250165 R34/250165 NOSIG RMK QFE751/1001
UNNT 150430Z 21005MPS 9999 OVC005 13/12 Q1015 R25/290160 R34/290160 NOSIG RMK QFE751/1001
UNNT 150400Z 20003MPS 9999 OVC003 11/11 Q1015 R25/290160 R34/290160 NOSIG RMK QFE751/1002
UNNT 150330Z 23002MPS 2400 0700N FG OVC002 10/10 Q1015 R25/290160 R34/290160 NOSIG RMK QFE751/1002
UNNT 150300Z 25002MPS 0450 0200N R07/1500U FG VV001 09/09 Q1015 R07/290160 R34/290160 NOSIG RMK QBB050 QFE751/1002
UNNT 150230Z 27002MPS 0300 0150N R07/0550N FG VV001 09/09 Q1015 R07/290160 R34/290160 NOSIG RMK QBB050 QFE751/1002
UNNT 150200Z 24003MPS 0350 0200N R07/0450D FG VV002 09/09 Q1015 R07/290160 R34/290160 NOSIG RMK QFE751/1001
UNNT 150130Z 27002MPS 0550 0200N R25/1400D FG VV001 09/08 Q1014 R25/290160 R34/290160 NOSIG RMK QBB050 QFE751/1001
UNNT 150100Z 26002MPS 4500 0300N FG SCT001 08/08 Q1014 R25/290160 R34/290160 NOSIG RMK QBB050 QFE751/1001
UNNT 150030Z 26002MPS CAVOK 08/07 Q1014 R25/290160 R34/290160 NOSIG RMK QFE751/1001
UNNT 150000Z 24004MPS CAVOK 08/07 Q1014 R25/290160 R34/290160 NOSIG RMK QFE751/1001
UNNT 142330Z 24003MPS CAVOK 08/07 Q1014 R25/290160 R34/290160 NOSIG RMK QFE751/1001
UNNT 142300Z 24003MPS CAVOK 08/07 Q1014 R25/290160 R34/290160 NOSIG RMK QFE750/1001
UNNT 142230Z 22002MPS CAVOK 09/08 Q1014 R25/290160 R34/290160 NOSIG RMK QFE750/1001
UNNT 142200Z 21002MPS CAVOK 09/08 Q1014 R25/290160 R34/290160 NOSIG RMK QFE750/1001
UNNT 142130Z 22003MPS 9999 FEW048 10/09 Q1014 R25/290160 R34/290160 NOSIG RMK QFE750/1001
UNNT 142100Z 22002MPS 9999 SCT048CB 10/09 Q1014 R25/290160 R34/290160 NOSIG RMK QFE750/1001
UNNT 142030Z 20003MPS 9999 BKN043CB 11/09 Q1013 R25/290160 R34/290160 NOSIG RMK QFE750/1000
UNNT 142000Z 19003MPS 9999 BKN044CB 11/10 Q1014 R25/290160 R34/290160 NOSIG RMK QFE750/1000
UNNT 141930Z 19003MPS 9999 -SHRA BKN042CB 11/10 Q1014 R25/290160 R34/290160 NOSIG RMK QFE750/1001